Noorvik, Alaska
Current Conditions -  °F | °C
As of 8:58 AM on Sunday 23 Nov 2014 (Local Time) from PFNO Reporting Station
Clear Clear  
Wind Chill: -17°   Ceiling: Unl
Heat Index:   Visibility: 10mi
Dew Point: -5°   Wind: 12mph
Humidity: 79%   Direction: 50°NE
Pressure: 29.71"   Gusts: NA
Location:  66.84°N, 161.04°W
Report Text: PFNO 231758Z AUTO 05010KT 10SM CLR M18/M21 A2971 RMK AO2 SLP061 T11781206 11172 21189 53002 FZRANO
Loading
Personal Weather Stations






























Interactive Weather Map New forecast layout! Learn more

10-Day Weather Forecast

Advertisements
Track Severe Weather on mobile